JBU495 KFLL-MMUN
Flight info
| Callsign | JBU495 |
|---|---|
| Flight time | 1h 36m |
| Altitude | 34000 |
| Route | GLADZ4 LULLS Y196 CANOA UB879 NOSAT NOSAT1B |
| Aircraft | A321/M-SDE3FGHIRWY/LB1 |
Departure
| Time | 2026-05-03 21:25 |
|---|---|
| Airport | Fort Lauderdale Hollywood International Airport (KFLL) |
Arrival
| Time | 2026-05-03 23:01 |
|---|---|
| Airport | Cancún International Airport (MMUN) |
| Time | Latitude | Longitude | Altitude | Speed | Heading |
|---|---|---|---|---|---|
| 2026-05-03 20:26 | 26.07155 | -80.14690 | 12 ft | 0 kts | 178° |
| 2026-05-03 20:28 | 26.07151 | -80.14732 | 12 ft | 0 kts | 162° |
| 2026-05-03 20:48 | 26.07157 | -80.14735 | 12 ft | 2 kts | 162° |
| 2026-05-03 20:48 | 26.07172 | -80.14739 | 12 ft | 2 kts | 163° |
| 2026-05-03 20:48 | 26.07186 | -80.14745 | 12 ft | 2 kts | 162° |
| 2026-05-03 20:48 | 26.07201 | -80.14750 | 12 ft | 2 kts | 171° |
| 2026-05-03 20:49 | 26.07214 | -80.14745 | 12 ft | 2 kts | 225° |
| 2026-05-03 20:49 | 26.07221 | -80.14730 | 12 ft | 2 kts | 271° |
| 2026-05-03 20:49 | 26.07220 | -80.14720 | 12 ft | 1 kts | 298° |
| 2026-05-03 20:49 | 26.07216 | -80.14714 | 12 ft | 0 kts | 298° |
| 2026-05-03 20:53 | 26.07216 | -80.14715 | 12 ft | 0 kts | 295° |
| 2026-05-03 20:54 | 26.07221 | -80.14725 | 12 ft | 2 kts | 295° |
| 2026-05-03 20:54 | 26.07257 | -80.14806 | 12 ft | 7 kts | 297° |
| 2026-05-03 20:54 | 26.07293 | -80.14848 | 12 ft | 8 kts | 341° |
| 2026-05-03 20:55 | 26.07352 | -80.14865 | 12 ft | 9 kts | 325° |
| 2026-05-03 20:55 | 26.07388 | -80.14929 | 12 ft | 10 kts | 306° |
| 2026-05-03 20:55 | 26.07440 | -80.14990 | 12 ft | 11 kts | 315° |
| 2026-05-03 20:55 | 26.07496 | -80.15053 | 12 ft | 10 kts | 299° |
| 2026-05-03 20:56 | 26.07496 | -80.15140 | 12 ft | 12 kts | 266° |
| 2026-05-03 20:56 | 26.07492 | -80.15237 | 12 ft | 12 kts | 270° |
| 2026-05-03 20:56 | 26.07492 | -80.15340 | 12 ft | 13 kts | 270° |
| 2026-05-03 20:56 | 26.07492 | -80.15445 | 12 ft | 14 kts | 270° |
| 2026-05-03 20:57 | 26.07493 | -80.15556 | 12 ft | 14 kts | 270° |
| 2026-05-03 20:57 | 26.07493 | -80.15671 | 12 ft | 15 kts | 270° |
| 2026-05-03 20:57 | 26.07494 | -80.15788 | 12 ft | 15 kts | 270° |
| 2026-05-03 20:57 | 26.07494 | -80.15909 | 12 ft | 15 kts | 270° |
| 2026-05-03 20:58 | 26.07495 | -80.16032 | 12 ft | 16 kts | 270° |
| 2026-05-03 20:58 | 26.07495 | -80.16158 | 12 ft | 16 kts | 270° |
| 2026-05-03 20:58 | 26.07496 | -80.16268 | 12 ft | 9 kts | 271° |
| 2026-05-03 20:58 | 26.07496 | -80.16273 | 12 ft | 0 kts | 271° |
| 2026-05-03 20:59 | 26.07496 | -80.16284 | 12 ft | 2 kts | 270° |
| 2026-05-03 20:59 | 26.07496 | -80.16299 | 12 ft | 0 kts | 270° |
| 2026-05-03 21:00 | 26.07496 | -80.16307 | 12 ft | 1 kts | 270° |
| 2026-05-03 21:00 | 26.07496 | -80.16312 | 12 ft | 2 kts | 270° |
| 2026-05-03 21:00 | 26.07496 | -80.16333 | 12 ft | 0 kts | 270° |
| 2026-05-03 21:01 | 26.07496 | -80.16338 | 12 ft | 1 kts | 270° |
| 2026-05-03 21:01 | 26.07496 | -80.16341 | 12 ft | 0 kts | 270° |
| 2026-05-03 21:01 | 26.07496 | -80.16354 | 12 ft | 2 kts | 270° |
| 2026-05-03 21:02 | 26.07496 | -80.16377 | 12 ft | 3 kts | 270° |
| 2026-05-03 21:02 | 26.07496 | -80.16412 | 12 ft | 4 kts | 270° |
| 2026-05-03 21:02 | 26.07496 | -80.16431 | 12 ft | 0 kts | 271° |
| 2026-05-03 21:04 | 26.07496 | -80.16434 | 12 ft | 1 kts | 270° |
| 2026-05-03 21:04 | 26.07496 | -80.16445 | 12 ft | 2 kts | 270° |
| 2026-05-03 21:05 | 26.07497 | -80.16466 | 12 ft | 3 kts | 270° |
| 2026-05-03 21:05 | 26.07497 | -80.16486 | 12 ft | 1 kts | 270° |
| 2026-05-03 21:05 | 26.07497 | -80.16506 | 12 ft | 3 kts | 270° |
| 2026-05-03 21:05 | 26.07497 | -80.16514 | 12 ft | 0 kts | 270° |
| 2026-05-03 21:08 | 26.07497 | -80.16518 | 12 ft | 1 kts | 270° |
| 2026-05-03 21:08 | 26.07497 | -80.16524 | 12 ft | 1 kts | 270° |
| 2026-05-03 21:08 | 26.07497 | -80.16538 | 12 ft | 2 kts | 270° |
| 2026-05-03 21:08 | 26.07497 | -80.16563 | 12 ft | 3 kts | 271° |
| 2026-05-03 21:09 | 26.07497 | -80.16575 | 12 ft | 0 kts | 271° |
| 2026-05-03 21:12 | 26.07497 | -80.16576 | 12 ft | 0 kts | 271° |
| 2026-05-03 21:12 | 26.07498 | -80.16589 | 12 ft | 3 kts | 271° |
| 2026-05-03 21:13 | 26.07503 | -80.16622 | 12 ft | 4 kts | 302° |
| 2026-05-03 21:13 | 26.07517 | -80.16634 | 12 ft | 0 kts | 331° |
| 2026-05-03 21:13 | 26.07519 | -80.16636 | 12 ft | 0 kts | 333° |
| 2026-05-03 21:14 | 26.07526 | -80.16639 | 12 ft | 0 kts | 340° |
| 2026-05-03 21:14 | 26.07527 | -80.16639 | 12 ft | 0 kts | 341° |
| 2026-05-03 21:14 | 26.07544 | -80.16644 | 12 ft | 2 kts | 354° |
| 2026-05-03 21:14 | 26.07547 | -80.16644 | 12 ft | 0 kts | 0° |
| 2026-05-03 21:15 | 26.07551 | -80.16644 | 12 ft | 1 kts | 0° |
| 2026-05-03 21:16 | 26.07564 | -80.16644 | 12 ft | 2 kts | 0° |
| 2026-05-03 21:16 | 26.07584 | -80.16644 | 12 ft | 3 kts | 0° |
| 2026-05-03 21:16 | 26.07590 | -80.16643 | 12 ft | 0 kts | 0° |
| 2026-05-03 21:17 | 26.07591 | -80.16643 | 12 ft | 0 kts | 0° |
| 2026-05-03 21:23 | 26.07595 | -80.16643 | 12 ft | 4 kts | 0° |
| 2026-05-03 21:23 | 26.07653 | -80.16643 | 12 ft | 9 kts | 0° |
| 2026-05-03 21:23 | 26.07692 | -80.16612 | 12 ft | 1 kts | 85° |
| 2026-05-03 21:25 | 26.07693 | -80.16554 | 12 ft | 34 kts | 89° |
| 2026-05-03 21:25 | 26.07692 | -80.15944 | 12 ft | 121 kts | 90° |
| 2026-05-03 21:25 | 26.07680 | -80.14741 | 124 ft | 181 kts | 89° |
| 2026-05-03 21:25 | 26.07658 | -80.13343 | 988 ft | 184 kts | 89° |
| 2026-05-03 21:26 | 26.07640 | -80.11970 | 1998 ft | 177 kts | 89° |
| 2026-05-03 21:26 | 26.07624 | -80.10618 | 2452 ft | 181 kts | 86° |
| 2026-05-03 21:26 | 26.07906 | -80.09203 | 2739 ft | 193 kts | 67° |
| 2026-05-03 21:26 | 26.08507 | -80.07817 | 3037 ft | 207 kts | 55° |
| 2026-05-03 21:27 | 26.09636 | -80.06770 | 3329 ft | 220 kts | 24° |
| 2026-05-03 21:27 | 26.11148 | -80.06182 | 3597 ft | 240 kts | 18° |
| 2026-05-03 21:27 | 26.12806 | -80.05576 | 3942 ft | 259 kts | 19° |
| 2026-05-03 21:27 | 26.14564 | -80.04968 | 3981 ft | 267 kts | 11° |
| 2026-05-03 21:28 | 26.16415 | -80.04956 | 3977 ft | 268 kts | 348° |
| 2026-05-03 21:28 | 26.18198 | -80.05557 | 3983 ft | 268 kts | 340° |
| 2026-05-03 21:28 | 26.19967 | -80.06274 | 3982 ft | 268 kts | 339° |
| 2026-05-03 21:28 | 26.21674 | -80.07098 | 3984 ft | 267 kts | 325° |
| 2026-05-03 21:29 | 26.22928 | -80.08607 | 3997 ft | 267 kts | 297° |
| 2026-05-03 21:29 | 26.23640 | -80.10522 | 4014 ft | 267 kts | 290° |
| 2026-05-03 21:29 | 26.24282 | -80.12447 | 4014 ft | 267 kts | 290° |
| 2026-05-03 21:29 | 26.24939 | -80.14398 | 4039 ft | 270 kts | 288° |
| 2026-05-03 21:30 | 26.25361 | -80.16454 | 4458 ft | 276 kts | 276° |
| 2026-05-03 21:30 | 26.25424 | -80.18546 | 5257 ft | 274 kts | 269° |
| 2026-05-03 21:30 | 26.25380 | -80.20669 | 5943 ft | 276 kts | 268° |
| 2026-05-03 21:30 | 26.25324 | -80.22817 | 6549 ft | 279 kts | 268° |
| 2026-05-03 21:31 | 26.25268 | -80.24957 | 7173 ft | 281 kts | 268° |
| 2026-05-03 21:31 | 26.25214 | -80.27135 | 7807 ft | 282 kts | 268° |
| 2026-05-03 21:31 | 26.25161 | -80.29318 | 8400 ft | 282 kts | 268° |
| 2026-05-03 21:31 | 26.25111 | -80.31490 | 8960 ft | 284 kts | 268° |
| 2026-05-03 21:32 | 26.25064 | -80.33697 | 9515 ft | 286 kts | 267° |
| 2026-05-03 21:32 | 26.25017 | -80.35884 | 10051 ft | 287 kts | 267° |
| 2026-05-03 21:32 | 26.24966 | -80.38126 | 10440 ft | 294 kts | 267° |
| 2026-05-03 21:32 | 26.24908 | -80.40417 | 10679 ft | 306 kts | 267° |
| 2026-05-03 21:33 | 26.24847 | -80.42842 | 10925 ft | 318 kts | 267° |
| 2026-05-03 21:33 | 26.24785 | -80.45374 | 11175 ft | 331 kts | 267° |
| 2026-05-03 21:33 | 26.24721 | -80.47952 | 11469 ft | 340 kts | 267° |
| 2026-05-03 21:33 | 26.24656 | -80.50601 | 11960 ft | 343 kts | 267° |
| 2026-05-03 21:34 | 26.24594 | -80.53223 | 12486 ft | 342 kts | 267° |
| 2026-05-03 21:34 | 26.24530 | -80.55907 | 12913 ft | 347 kts | 267° |
| 2026-05-03 21:34 | 26.24464 | -80.58605 | 13334 ft | 350 kts | 267° |
| 2026-05-03 21:34 | 26.24400 | -80.61324 | 13813 ft | 353 kts | 267° |
| 2026-05-03 21:35 | 26.24293 | -80.64027 | 14310 ft | 353 kts | 262° |
| 2026-05-03 21:35 | 26.23479 | -80.66599 | 14748 ft | 355 kts | 238° |
| 2026-05-03 21:35 | 26.21831 | -80.68616 | 15246 ft | 359 kts | 220° |
| 2026-05-03 21:35 | 26.19608 | -80.69994 | 15702 ft | 367 kts | 203° |
| 2026-05-03 21:36 | 26.17063 | -80.70540 | 15996 ft | 376 kts | 188° |
| 2026-05-03 21:36 | 26.14469 | -80.70682 | 16038 ft | 376 kts | 187° |
| 2026-05-03 21:36 | 26.11834 | -80.70813 | 16052 ft | 374 kts | 187° |
| 2026-05-03 21:36 | 26.09230 | -80.70953 | 16040 ft | 373 kts | 187° |
| 2026-05-03 21:37 | 26.06636 | -80.71104 | 16032 ft | 373 kts | 188° |
| 2026-05-03 21:37 | 26.04057 | -80.71261 | 16028 ft | 372 kts | 188° |
| 2026-05-03 21:37 | 26.01460 | -80.71423 | 16025 ft | 371 kts | 188° |
| 2026-05-03 21:37 | 25.98859 | -80.71589 | 16018 ft | 371 kts | 188° |
| 2026-05-03 21:38 | 25.96296 | -80.71753 | 16014 ft | 371 kts | 188° |
| 2026-05-03 21:38 | 25.93705 | -80.71919 | 16012 ft | 371 kts | 188° |
| 2026-05-03 21:38 | 25.91125 | -80.72084 | 16011 ft | 371 kts | 188° |
| 2026-05-03 21:38 | 25.88553 | -80.72248 | 16008 ft | 371 kts | 188° |
| 2026-05-03 21:39 | 25.85951 | -80.72414 | 16006 ft | 371 kts | 188° |
| 2026-05-03 21:39 | 25.83362 | -80.72613 | 15998 ft | 370 kts | 192° |
| 2026-05-03 21:39 | 25.80961 | -80.73429 | 15992 ft | 361 kts | 210° |
| 2026-05-03 21:39 | 25.78931 | -80.75041 | 16000 ft | 355 kts | 227° |
| 2026-05-03 21:40 | 25.77372 | -80.77163 | 16141 ft | 358 kts | 234° |
| 2026-05-03 21:40 | 25.75761 | -80.79312 | 16621 ft | 361 kts | 231° |
| 2026-05-03 21:40 | 25.74113 | -80.81423 | 17110 ft | 362 kts | 231° |
| 2026-05-03 21:40 | 25.72480 | -80.83521 | 17527 ft | 364 kts | 231° |
| 2026-05-03 21:41 | 25.70829 | -80.85654 | 17942 ft | 367 kts | 231° |
| 2026-05-03 21:41 | 25.69160 | -80.87823 | 18367 ft | 368 kts | 232° |
| 2026-05-03 21:41 | 25.67492 | -80.89998 | 18765 ft | 371 kts | 232° |
| 2026-05-03 21:41 | 25.65823 | -80.92183 | 19166 ft | 373 kts | 232° |
| 2026-05-03 21:42 | 25.64152 | -80.94373 | 19563 ft | 374 kts | 232° |
| 2026-05-03 21:42 | 25.62452 | -80.96603 | 19941 ft | 376 kts | 232° |
| 2026-05-03 21:42 | 25.60767 | -80.98810 | 20314 ft | 378 kts | 232° |
| 2026-05-03 21:42 | 25.59064 | -81.01040 | 20687 ft | 380 kts | 232° |
| 2026-05-03 21:43 | 25.57342 | -81.03294 | 21044 ft | 382 kts | 232° |
| 2026-05-03 21:43 | 25.55628 | -81.05537 | 21399 ft | 383 kts | 232° |
| 2026-05-03 21:43 | 25.53918 | -81.07774 | 21748 ft | 384 kts | 232° |
| 2026-05-03 21:43 | 25.52168 | -81.10061 | 22089 ft | 386 kts | 232° |
| 2026-05-03 21:44 | 25.50449 | -81.12308 | 22414 ft | 387 kts | 232° |
| 2026-05-03 21:44 | 25.48695 | -81.14600 | 22736 ft | 389 kts | 232° |
| 2026-05-03 21:44 | 25.46953 | -81.16874 | 23052 ft | 390 kts | 232° |
| 2026-05-03 21:44 | 25.45200 | -81.19163 | 23360 ft | 391 kts | 232° |
| 2026-05-03 21:45 | 25.43446 | -81.21451 | 23655 ft | 392 kts | 232° |
| 2026-05-03 21:45 | 25.41667 | -81.23771 | 23949 ft | 393 kts | 232° |
| 2026-05-03 21:45 | 25.39909 | -81.26062 | 24224 ft | 394 kts | 232° |
| 2026-05-03 21:45 | 25.38124 | -81.28387 | 24501 ft | 396 kts | 232° |
| 2026-05-03 21:46 | 25.36335 | -81.30718 | 24789 ft | 398 kts | 232° |
| 2026-05-03 21:46 | 25.34528 | -81.33070 | 25080 ft | 399 kts | 232° |
| 2026-05-03 21:46 | 25.32740 | -81.35397 | 25360 ft | 400 kts | 232° |
| 2026-05-03 21:46 | 25.30935 | -81.37744 | 25636 ft | 401 kts | 232° |
| 2026-05-03 21:47 | 25.29109 | -81.40117 | 25910 ft | 402 kts | 232° |
| 2026-05-03 21:47 | 25.27305 | -81.42460 | 26178 ft | 404 kts | 232° |
| 2026-05-03 21:47 | 25.25494 | -81.44810 | 26443 ft | 405 kts | 232° |
| 2026-05-03 21:47 | 25.23663 | -81.47186 | 26707 ft | 406 kts | 232° |
| 2026-05-03 21:48 | 25.21831 | -81.49564 | 26966 ft | 407 kts | 231° |
| 2026-05-03 21:48 | 25.20002 | -81.51932 | 27217 ft | 408 kts | 231° |
| 2026-05-03 21:48 | 25.18142 | -81.54338 | 27468 ft | 409 kts | 231° |
| 2026-05-03 21:48 | 25.16284 | -81.56741 | 27713 ft | 410 kts | 231° |
| 2026-05-03 21:49 | 25.14435 | -81.59131 | 27951 ft | 412 kts | 231° |
| 2026-05-03 21:49 | 25.12589 | -81.61518 | 28182 ft | 413 kts | 231° |
| 2026-05-03 21:49 | 25.10712 | -81.63944 | 28467 ft | 413 kts | 231° |
| 2026-05-03 21:49 | 25.08863 | -81.66331 | 28805 ft | 411 kts | 231° |
| 2026-05-03 21:50 | 25.06993 | -81.68747 | 29166 ft | 410 kts | 231° |
| 2026-05-03 21:50 | 25.05167 | -81.71104 | 29502 ft | 408 kts | 231° |
| 2026-05-03 21:50 | 25.03320 | -81.73487 | 29835 ft | 407 kts | 231° |
| 2026-05-03 21:50 | 25.01471 | -81.75872 | 30187 ft | 406 kts | 231° |
| 2026-05-03 21:51 | 24.99644 | -81.78226 | 30539 ft | 405 kts | 231° |
| 2026-05-03 21:51 | 24.97817 | -81.80579 | 30895 ft | 403 kts | 231° |
| 2026-05-03 21:51 | 24.96018 | -81.82896 | 31247 ft | 401 kts | 231° |
| 2026-05-03 21:51 | 24.94201 | -81.85234 | 31597 ft | 400 kts | 231° |
| 2026-05-03 21:52 | 24.92387 | -81.87568 | 31950 ft | 398 kts | 232° |
| 2026-05-03 21:52 | 24.90587 | -81.89883 | 32292 ft | 397 kts | 232° |
| 2026-05-03 21:52 | 24.88783 | -81.92202 | 32601 ft | 397 kts | 232° |
| 2026-05-03 21:52 | 24.86987 | -81.94511 | 32879 ft | 397 kts | 232° |
| 2026-05-03 21:53 | 24.85207 | -81.96796 | 33143 ft | 397 kts | 232° |
| 2026-05-03 21:53 | 24.83398 | -81.99116 | 33411 ft | 397 kts | 232° |
| 2026-05-03 21:53 | 24.81589 | -82.01437 | 33680 ft | 398 kts | 232° |
| 2026-05-03 21:53 | 24.79808 | -82.03721 | 33929 ft | 398 kts | 232° |
| 2026-05-03 21:54 | 24.77989 | -82.06052 | 34055 ft | 398 kts | 232° |
| 2026-05-03 21:54 | 24.76190 | -82.08358 | 34096 ft | 398 kts | 232° |
| 2026-05-03 21:54 | 24.72601 | -82.12952 | 34087 ft | 396 kts | 232° |
| 2026-05-03 21:55 | 24.69015 | -82.17539 | 34061 ft | 396 kts | 232° |
| 2026-05-03 21:55 | 24.65399 | -82.22160 | 34034 ft | 397 kts | 232° |
| 2026-05-03 21:56 | 24.61809 | -82.26743 | 34016 ft | 397 kts | 232° |
| 2026-05-03 21:56 | 24.58201 | -82.31344 | 34019 ft | 397 kts | 232° |
| 2026-05-03 21:57 | 24.54602 | -82.35929 | 34024 ft | 398 kts | 232° |
| 2026-05-03 21:57 | 24.50988 | -82.40528 | 34027 ft | 398 kts | 232° |
| 2026-05-03 21:58 | 24.47361 | -82.45140 | 34028 ft | 398 kts | 232° |
| 2026-05-03 21:58 | 24.43760 | -82.49714 | 34027 ft | 398 kts | 232° |
| 2026-05-03 21:59 | 24.40130 | -82.54320 | 34026 ft | 398 kts | 232° |
| 2026-05-03 21:59 | 24.36510 | -82.58909 | 34027 ft | 398 kts | 232° |
| 2026-05-03 22:00 | 24.32893 | -82.63490 | 34028 ft | 398 kts | 233° |
| 2026-05-03 22:00 | 24.29263 | -82.68083 | 34030 ft | 398 kts | 232° |
| 2026-05-03 22:01 | 24.25654 | -82.72648 | 34030 ft | 398 kts | 232° |
| 2026-05-03 22:01 | 24.22013 | -82.77248 | 34031 ft | 398 kts | 232° |
| 2026-05-03 22:02 | 24.18383 | -82.81828 | 34031 ft | 398 kts | 232° |
| 2026-05-03 22:02 | 24.14765 | -82.86392 | 34031 ft | 398 kts | 232° |
| 2026-05-03 22:03 | 24.11118 | -82.90987 | 34032 ft | 397 kts | 232° |
| 2026-05-03 22:03 | 24.07498 | -82.95548 | 34032 ft | 397 kts | 232° |
| 2026-05-03 22:04 | 24.03870 | -83.00112 | 34031 ft | 397 kts | 232° |
| 2026-05-03 22:04 | 24.00288 | -83.04666 | 34029 ft | 396 kts | 234° |
| 2026-05-03 22:05 | 23.96969 | -83.09437 | 34030 ft | 395 kts | 236° |
| 2026-05-03 22:05 | 23.93680 | -83.14263 | 34027 ft | 395 kts | 236° |
| 2026-05-03 22:06 | 23.90393 | -83.19090 | 34024 ft | 398 kts | 236° |
| 2026-05-03 22:06 | 23.87088 | -83.23944 | 34026 ft | 400 kts | 236° |
| 2026-05-03 22:07 | 23.83758 | -83.28832 | 34028 ft | 400 kts | 236° |
| 2026-05-03 22:07 | 23.80424 | -83.33721 | 34028 ft | 400 kts | 236° |
| 2026-05-03 22:08 | 23.77109 | -83.38583 | 34028 ft | 400 kts | 236° |
| 2026-05-03 22:08 | 23.73776 | -83.43462 | 34028 ft | 400 kts | 236° |
| 2026-05-03 22:09 | 23.70464 | -83.48307 | 34028 ft | 400 kts | 236° |
| 2026-05-03 22:10 | 23.65477 | -83.55595 | 34028 ft | 399 kts | 236° |
| 2026-05-03 22:10 | 23.62159 | -83.60435 | 34029 ft | 399 kts | 236° |
| 2026-05-03 22:11 | 23.58810 | -83.65298 | 34029 ft | 399 kts | 236° |
| 2026-05-03 22:11 | 23.55491 | -83.70119 | 34030 ft | 399 kts | 236° |
| 2026-05-03 22:12 | 23.52164 | -83.74952 | 34029 ft | 399 kts | 236° |
| 2026-05-03 22:12 | 23.48814 | -83.79816 | 34029 ft | 399 kts | 236° |
| 2026-05-03 22:13 | 23.45481 | -83.84650 | 34028 ft | 399 kts | 236° |
| 2026-05-03 22:13 | 23.42165 | -83.89455 | 34028 ft | 399 kts | 236° |
| 2026-05-03 22:14 | 23.38828 | -83.94288 | 34028 ft | 399 kts | 236° |
| 2026-05-03 22:14 | 23.35494 | -83.99112 | 34028 ft | 400 kts | 236° |
| 2026-05-03 22:15 | 23.32142 | -84.03957 | 34027 ft | 400 kts | 236° |
| 2026-05-03 22:15 | 23.28778 | -84.08814 | 34027 ft | 401 kts | 236° |
| 2026-05-03 22:16 | 23.25425 | -84.13650 | 34026 ft | 401 kts | 236° |
| 2026-05-03 22:16 | 23.22076 | -84.18478 | 34026 ft | 401 kts | 236° |
| 2026-05-03 22:17 | 23.18704 | -84.23337 | 34026 ft | 402 kts | 236° |
| 2026-05-03 22:17 | 23.15347 | -84.28166 | 34026 ft | 402 kts | 236° |
| 2026-05-03 22:18 | 23.11965 | -84.33029 | 34026 ft | 403 kts | 236° |
| 2026-05-03 22:18 | 23.08586 | -84.37883 | 34025 ft | 403 kts | 236° |
| 2026-05-03 22:19 | 23.05202 | -84.42741 | 34025 ft | 404 kts | 236° |
| 2026-05-03 22:19 | 23.01821 | -84.47591 | 34025 ft | 404 kts | 236° |
| 2026-05-03 22:20 | 22.98416 | -84.52469 | 34025 ft | 405 kts | 236° |
| 2026-05-03 22:20 | 22.95020 | -84.57321 | 34025 ft | 405 kts | 236° |
| 2026-05-03 22:21 | 22.91606 | -84.62190 | 34024 ft | 406 kts | 236° |
| 2026-05-03 22:21 | 22.88166 | -84.67099 | 34025 ft | 407 kts | 236° |
| 2026-05-03 22:22 | 22.84747 | -84.71972 | 34024 ft | 407 kts | 236° |
| 2026-05-03 22:22 | 22.81319 | -84.76855 | 34023 ft | 407 kts | 236° |
| 2026-05-03 22:23 | 22.77874 | -84.81760 | 34022 ft | 407 kts | 236° |
| 2026-05-03 22:23 | 22.74448 | -84.86634 | 34021 ft | 408 kts | 236° |
| 2026-05-03 22:24 | 22.70998 | -84.91541 | 34021 ft | 408 kts | 236° |
| 2026-05-03 22:24 | 22.67574 | -84.96406 | 34021 ft | 408 kts | 236° |
| 2026-05-03 22:25 | 22.64141 | -85.01280 | 34020 ft | 409 kts | 236° |
| 2026-05-03 22:25 | 22.60678 | -85.06190 | 34020 ft | 409 kts | 236° |
| 2026-05-03 22:26 | 22.57253 | -85.11092 | 34019 ft | 409 kts | 236° |
| 2026-05-03 22:26 | 22.53817 | -85.16027 | 34018 ft | 409 kts | 236° |
| 2026-05-03 22:27 | 22.50417 | -85.20908 | 34017 ft | 409 kts | 236° |
| 2026-05-03 22:27 | 22.46983 | -85.25834 | 34016 ft | 410 kts | 236° |
| 2026-05-03 22:28 | 22.43545 | -85.30760 | 34015 ft | 410 kts | 236° |
| 2026-05-03 22:28 | 22.40111 | -85.35677 | 34015 ft | 410 kts | 236° |
| 2026-05-03 22:29 | 22.36691 | -85.40569 | 34014 ft | 410 kts | 236° |
| 2026-05-03 22:29 | 22.33236 | -85.45509 | 34013 ft | 411 kts | 236° |
| 2026-05-03 22:30 | 22.29794 | -85.50427 | 33751 ft | 415 kts | 236° |
| 2026-05-03 22:30 | 22.28059 | -85.52908 | 33190 ft | 417 kts | 236° |
| 2026-05-03 22:30 | 22.26297 | -85.55421 | 32467 ft | 420 kts | 236° |
| 2026-05-03 22:30 | 22.24548 | -85.57916 | 31630 ft | 423 kts | 236° |
| 2026-05-03 22:31 | 22.22755 | -85.60472 | 30786 ft | 425 kts | 236° |
| 2026-05-03 22:31 | 22.20985 | -85.62998 | 29951 ft | 427 kts | 236° |
| 2026-05-03 22:31 | 22.19209 | -85.65533 | 29104 ft | 428 kts | 235° |
| 2026-05-03 22:31 | 22.17405 | -85.68108 | 28200 ft | 430 kts | 235° |
| 2026-05-03 22:32 | 22.15602 | -85.70683 | 27331 ft | 431 kts | 235° |
| 2026-05-03 22:32 | 22.13816 | -85.73232 | 26662 ft | 426 kts | 235° |
| 2026-05-03 22:32 | 22.12059 | -85.75737 | 26065 ft | 419 kts | 234° |
| 2026-05-03 22:32 | 22.10299 | -85.78244 | 25508 ft | 412 kts | 234° |
| 2026-05-03 22:33 | 22.08596 | -85.80669 | 24973 ft | 406 kts | 235° |
| 2026-05-03 22:33 | 22.06905 | -85.83076 | 24446 ft | 399 kts | 235° |
| 2026-05-03 22:33 | 22.05248 | -85.85437 | 23928 ft | 395 kts | 235° |
| 2026-05-03 22:33 | 22.03588 | -85.87803 | 23448 ft | 392 kts | 235° |
| 2026-05-03 22:34 | 22.01953 | -85.90131 | 22952 ft | 388 kts | 235° |
| 2026-05-03 22:34 | 22.00333 | -85.92435 | 22472 ft | 384 kts | 235° |
| 2026-05-03 22:34 | 21.98759 | -85.94672 | 22263 ft | 377 kts | 235° |
| 2026-05-03 22:34 | 21.97119 | -85.96857 | 22000 ft | 368 kts | 232° |
| 2026-05-03 22:35 | 21.95406 | -85.98837 | 21856 ft | 359 kts | 228° |
| 2026-05-03 22:35 | 21.93552 | -86.00713 | 21819 ft | 365 kts | 225° |
| 2026-05-03 22:35 | 21.91661 | -86.02509 | 21783 ft | 366 kts | 225° |
| 2026-05-03 22:35 | 21.89734 | -86.04328 | 21793 ft | 367 kts | 225° |
| 2026-05-03 22:36 | 21.87799 | -86.06153 | 21802 ft | 368 kts | 225° |
| 2026-05-03 22:36 | 21.85857 | -86.07983 | 21810 ft | 368 kts | 225° |
| 2026-05-03 22:36 | 21.83949 | -86.09778 | 21663 ft | 368 kts | 225° |
| 2026-05-03 22:36 | 21.82014 | -86.11598 | 21391 ft | 366 kts | 225° |
| 2026-05-03 22:37 | 21.80114 | -86.13384 | 21122 ft | 363 kts | 225° |
| 2026-05-03 22:37 | 21.78211 | -86.15175 | 20848 ft | 361 kts | 225° |
| 2026-05-03 22:37 | 21.76336 | -86.16939 | 20571 ft | 359 kts | 225° |
| 2026-05-03 22:37 | 21.74444 | -86.18719 | 20257 ft | 358 kts | 225° |
| 2026-05-03 22:38 | 21.72586 | -86.20466 | 19947 ft | 356 kts | 224° |
| 2026-05-03 22:38 | 21.70740 | -86.22199 | 19638 ft | 351 kts | 224° |
| 2026-05-03 22:38 | 21.68900 | -86.23925 | 19342 ft | 344 kts | 224° |
| 2026-05-03 22:38 | 21.67134 | -86.25582 | 19052 ft | 336 kts | 224° |
| 2026-05-03 22:39 | 21.65382 | -86.27228 | 18758 ft | 330 kts | 225° |
| 2026-05-03 22:39 | 21.63683 | -86.28825 | 18468 ft | 323 kts | 224° |
| 2026-05-03 22:39 | 21.61979 | -86.30426 | 18172 ft | 318 kts | 224° |
| 2026-05-03 22:39 | 21.60338 | -86.31966 | 17883 ft | 312 kts | 224° |
| 2026-05-03 22:40 | 21.58719 | -86.33490 | 17595 ft | 309 kts | 224° |
| 2026-05-03 22:40 | 21.57084 | -86.35023 | 17304 ft | 308 kts | 224° |
| 2026-05-03 22:40 | 21.55468 | -86.36538 | 17016 ft | 308 kts | 224° |
| 2026-05-03 22:40 | 21.53865 | -86.38032 | 16729 ft | 307 kts | 223° |
| 2026-05-03 22:41 | 21.52172 | -86.39447 | 16438 ft | 308 kts | 219° |
| 2026-05-03 22:41 | 21.50394 | -86.40747 | 16148 ft | 307 kts | 217° |
| 2026-05-03 22:41 | 21.48620 | -86.42017 | 15859 ft | 306 kts | 217° |
| 2026-05-03 22:41 | 21.46865 | -86.43270 | 15571 ft | 305 kts | 217° |
| 2026-05-03 22:42 | 21.45080 | -86.44546 | 15277 ft | 305 kts | 217° |
| 2026-05-03 22:42 | 21.43334 | -86.45794 | 14989 ft | 304 kts | 217° |
| 2026-05-03 22:42 | 21.41566 | -86.47059 | 14696 ft | 303 kts | 217° |
| 2026-05-03 22:42 | 21.39809 | -86.48315 | 14404 ft | 302 kts | 216° |
| 2026-05-03 22:43 | 21.38080 | -86.49551 | 14117 ft | 301 kts | 216° |
| 2026-05-03 22:43 | 21.36328 | -86.50804 | 13825 ft | 300 kts | 216° |
| 2026-05-03 22:43 | 21.34580 | -86.52052 | 13533 ft | 299 kts | 216° |
| 2026-05-03 22:43 | 21.32862 | -86.53277 | 13243 ft | 296 kts | 216° |
| 2026-05-03 22:44 | 21.31145 | -86.54502 | 12950 ft | 292 kts | 216° |
| 2026-05-03 22:44 | 21.29467 | -86.55701 | 12660 ft | 289 kts | 216° |
| 2026-05-03 22:44 | 21.27795 | -86.56895 | 12368 ft | 285 kts | 216° |
| 2026-05-03 22:44 | 21.26148 | -86.58073 | 12077 ft | 282 kts | 216° |
| 2026-05-03 22:45 | 21.24537 | -86.59225 | 11790 ft | 280 kts | 216° |
| 2026-05-03 22:45 | 21.22904 | -86.60391 | 11497 ft | 277 kts | 216° |
| 2026-05-03 22:45 | 21.21324 | -86.61520 | 11208 ft | 274 kts | 216° |
| 2026-05-03 22:45 | 21.19736 | -86.62656 | 10916 ft | 272 kts | 216° |
| 2026-05-03 22:46 | 21.18170 | -86.63776 | 10626 ft | 269 kts | 216° |
| 2026-05-03 22:46 | 21.16624 | -86.64882 | 10338 ft | 267 kts | 216° |
| 2026-05-03 22:46 | 21.15078 | -86.65987 | 10048 ft | 264 kts | 216° |
| 2026-05-03 22:46 | 21.13549 | -86.67078 | 9756 ft | 262 kts | 215° |
| 2026-05-03 22:47 | 21.12025 | -86.68165 | 9464 ft | 261 kts | 215° |
| 2026-05-03 22:47 | 21.10523 | -86.69237 | 9175 ft | 259 kts | 215° |
| 2026-05-03 22:47 | 21.09040 | -86.70293 | 8888 ft | 256 kts | 215° |
| 2026-05-03 22:47 | 21.07698 | -86.71549 | 8569 ft | 253 kts | 239° |
| 2026-05-03 22:48 | 21.07214 | -86.73312 | 8278 ft | 250 kts | 271° |
| 2026-05-03 22:48 | 21.07664 | -86.75081 | 7990 ft | 252 kts | 300° |
| 2026-05-03 22:48 | 21.08668 | -86.76641 | 7710 ft | 253 kts | 304° |
| 2026-05-03 22:48 | 21.09668 | -86.78165 | 7428 ft | 252 kts | 303° |
| 2026-05-03 22:49 | 21.10669 | -86.79726 | 7140 ft | 251 kts | 303° |
| 2026-05-03 22:49 | 21.11638 | -86.81261 | 6857 ft | 250 kts | 302° |
| 2026-05-03 22:49 | 21.12615 | -86.82817 | 6570 ft | 250 kts | 302° |
| 2026-05-03 22:49 | 21.13575 | -86.84349 | 6286 ft | 248 kts | 302° |
| 2026-05-03 22:50 | 21.14540 | -86.85890 | 6000 ft | 247 kts | 302° |
| 2026-05-03 22:50 | 21.15495 | -86.87418 | 5714 ft | 246 kts | 302° |
| 2026-05-03 22:50 | 21.16439 | -86.88927 | 5431 ft | 245 kts | 302° |
| 2026-05-03 22:50 | 21.17384 | -86.90440 | 5146 ft | 245 kts | 302° |
| 2026-05-03 22:51 | 21.18330 | -86.91956 | 4858 ft | 244 kts | 302° |
| 2026-05-03 22:51 | 21.19268 | -86.93461 | 4573 ft | 243 kts | 302° |
| 2026-05-03 22:51 | 21.20201 | -86.94956 | 4288 ft | 242 kts | 302° |
| 2026-05-03 22:51 | 21.21141 | -86.96465 | 4001 ft | 242 kts | 302° |
| 2026-05-03 22:52 | 21.22075 | -86.97965 | 3714 ft | 241 kts | 302° |
| 2026-05-03 22:52 | 21.23007 | -86.99462 | 3428 ft | 241 kts | 302° |
| 2026-05-03 22:52 | 21.23933 | -87.00949 | 3145 ft | 240 kts | 303° |
| 2026-05-03 22:52 | 21.24853 | -87.02429 | 3014 ft | 234 kts | 303° |
| 2026-05-03 22:53 | 21.25776 | -87.03903 | 3019 ft | 238 kts | 303° |
| 2026-05-03 22:53 | 21.26704 | -87.05395 | 3019 ft | 239 kts | 303° |
| 2026-05-03 22:53 | 21.27627 | -87.06873 | 3019 ft | 240 kts | 303° |
| 2026-05-03 22:53 | 21.28495 | -87.08395 | 3001 ft | 240 kts | 291° |
| 2026-05-03 22:54 | 21.28609 | -87.10151 | 2988 ft | 238 kts | 250° |
| 2026-05-03 22:54 | 21.27669 | -87.11557 | 3000 ft | 236 kts | 214° |
| 2026-05-03 22:54 | 21.26242 | -87.12450 | 3011 ft | 237 kts | 209° |
| 2026-05-03 22:54 | 21.24819 | -87.13365 | 3005 ft | 237 kts | 210° |
| 2026-05-03 22:55 | 21.23279 | -87.13955 | 2996 ft | 235 kts | 181° |
| 2026-05-03 22:55 | 21.21700 | -87.13587 | 2999 ft | 234 kts | 149° |
| 2026-05-03 22:55 | 21.20519 | -87.12425 | 3008 ft | 233 kts | 127° |
| 2026-05-03 22:55 | 21.19619 | -87.10966 | 3008 ft | 233 kts | 121° |
| 2026-05-03 22:56 | 21.18780 | -87.09486 | 3004 ft | 233 kts | 121° |
| 2026-05-03 22:56 | 21.17917 | -87.08003 | 3002 ft | 233 kts | 122° |
| 2026-05-03 22:56 | 21.17048 | -87.06563 | 2995 ft | 226 kts | 124° |
| 2026-05-03 22:56 | 21.16199 | -87.05199 | 2992 ft | 218 kts | 124° |
| 2026-05-03 22:57 | 21.15350 | -87.03858 | 3028 ft | 213 kts | 124° |
| 2026-05-03 22:57 | 21.14559 | -87.02605 | 3075 ft | 196 kts | 124° |
| 2026-05-03 22:57 | 21.13800 | -87.01408 | 2886 ft | 189 kts | 123° |
| 2026-05-03 22:57 | 21.13083 | -87.00268 | 2630 ft | 178 kts | 124° |
| 2026-05-03 22:58 | 21.12413 | -86.99202 | 2386 ft | 167 kts | 124° |
| 2026-05-03 22:58 | 21.11790 | -86.98212 | 2202 ft | 158 kts | 124° |
| 2026-05-03 22:58 | 21.11179 | -86.97240 | 2000 ft | 156 kts | 124° |
| 2026-05-03 22:58 | 21.10577 | -86.96282 | 1800 ft | 152 kts | 124° |
| 2026-05-03 22:59 | 21.09995 | -86.95353 | 1603 ft | 150 kts | 124° |
| 2026-05-03 22:59 | 21.09418 | -86.94434 | 1412 ft | 149 kts | 124° |
| 2026-05-03 22:59 | 21.08843 | -86.93516 | 1219 ft | 148 kts | 124° |
| 2026-05-03 22:59 | 21.08270 | -86.92601 | 1027 ft | 148 kts | 124° |
| 2026-05-03 23:00 | 21.07690 | -86.91677 | 831 ft | 148 kts | 124° |
| 2026-05-03 23:00 | 21.07117 | -86.90762 | 639 ft | 147 kts | 124° |
| 2026-05-03 23:00 | 21.06545 | -86.89857 | 457 ft | 147 kts | 124° |
| 2026-05-03 23:00 | 21.05976 | -86.88957 | 256 ft | 146 kts | 123° |
| 2026-05-03 23:01 | 21.05424 | -86.88057 | 93 ft | 142 kts | 124° |
| 2026-05-03 23:01 | 21.04892 | -86.87216 | 40 ft | 125 kts | 123° |
| 2026-05-03 23:01 | 21.04505 | -86.86589 | 39 ft | 75 kts | 124° |
| 2026-05-03 23:01 | 21.04304 | -86.86271 | 41 ft | 33 kts | 123° |
| 2026-05-03 23:02 | 21.04173 | -86.86062 | 45 ft | 33 kts | 123° |
| 2026-05-03 23:02 | 21.04053 | -86.85928 | 46 ft | 18 kts | 163° |
| 2026-05-03 23:02 | 21.03973 | -86.85911 | 46 ft | 10 kts | 177° |
| 2026-05-03 23:02 | 21.03921 | -86.85954 | 46 ft | 10 kts | 256° |
| 2026-05-03 23:03 | 21.03936 | -86.86030 | 46 ft | 11 kts | 308° |
| 2026-05-03 23:03 | 21.03987 | -86.86105 | 44 ft | 13 kts | 305° |
| 2026-05-03 23:03 | 21.04030 | -86.86176 | 43 ft | 11 kts | 297° |
| 2026-05-03 23:03 | 21.03999 | -86.86248 | 42 ft | 12 kts | 212° |
| 2026-05-03 23:04 | 21.03919 | -86.86303 | 42 ft | 13 kts | 213° |
| 2026-05-03 23:04 | 21.03841 | -86.86358 | 43 ft | 13 kts | 213° |
| 2026-05-03 23:04 | 21.03760 | -86.86414 | 42 ft | 14 kts | 213° |
| 2026-05-03 23:04 | 21.03675 | -86.86474 | 43 ft | 14 kts | 213° |
| 2026-05-03 23:05 | 21.03593 | -86.86533 | 43 ft | 14 kts | 213° |
| 2026-05-03 23:05 | 21.03570 | -86.86603 | 41 ft | 11 kts | 294° |
| 2026-05-03 23:05 | 21.03621 | -86.86641 | 40 ft | 7 kts | 3° |
| 2026-05-03 23:05 | 21.03666 | -86.86619 | 41 ft | 6 kts | 32° |
| 2026-05-03 23:06 | 21.03703 | -86.86629 | 41 ft | 7 kts | 308° |
| 2026-05-03 23:06 | 21.03728 | -86.86667 | 40 ft | 3 kts | 304° |
| 2026-05-03 23:06 | 21.03736 | -86.86681 | 40 ft | 0 kts | 303° |